createdAt,value
2017-03-24T00:00:56.433Z,0
2017-03-24T00:02:05.824Z,0
2017-03-24T00:03:15.512Z,0
2017-03-24T00:04:24.914Z,0
2017-03-24T00:05:33.937Z,0
2017-03-24T00:06:42.968Z,0
2017-03-24T00:07:52.051Z,0
2017-03-24T00:09:01.746Z,0
2017-03-24T00:10:10.830Z,0
2017-03-24T00:11:19.922Z,0
2017-03-24T00:12:29.545Z,0
2017-03-24T00:13:38.676Z,0
2017-03-24T00:14:48.066Z,0
2017-03-24T00:15:57.147Z,0
2017-03-24T00:17:05.856Z,0
2017-03-24T00:18:15.253Z,0
2017-03-24T00:19:24.651Z,0
2017-03-24T00:20:33.724Z,0
2017-03-24T00:21:42.806Z,0
2017-03-24T00:22:52.498Z,0
2017-03-24T00:24:01.898Z,0
2017-03-24T00:25:10.988Z,0
2017-03-24T00:26:19.766Z,0
2017-03-24T00:27:28.852Z,0
2017-03-24T00:28:38.557Z,0
2017-03-24T00:29:47.342Z,0
2017-03-24T00:30:56.116Z,0
2017-03-24T00:32:05.195Z,0
2017-03-24T00:33:14.627Z,0
2017-03-24T00:34:23.767Z,0
2017-03-24T00:35:33.167Z,0
2017-03-24T00:36:42.560Z,0
2017-03-24T00:37:51.586Z,0
2017-03-24T00:39:01.277Z,0
2017-03-24T00:40:10.356Z,0
2017-03-24T00:41:19.376Z,0
2017-03-24T00:42:28.464Z,0
2017-03-24T00:43:37.189Z,0
2017-03-24T00:44:46.584Z,0
2017-03-24T00:45:55.358Z,0
2017-03-24T00:47:04.375Z,0
2017-03-24T00:48:13.465Z,0
2017-03-24T00:49:22.802Z,0
2017-03-24T00:50:31.582Z,0
2017-03-24T00:51:41.269Z,0
2017-03-24T00:52:50.672Z,0
2017-03-24T00:54:00.682Z,0
2017-03-24T00:55:09.773Z,0
2017-03-24T00:56:18.852Z,0
2017-03-24T00:57:27.870Z,0
2017-03-24T00:58:37.567Z,0
2017-03-24T00:59:46.655Z,0
2017-03-24T01:00:55.674Z,0
2017-03-24T01:02:05.066Z,0
2017-03-24T01:03:14.393Z,0
2017-03-24T01:04:24.406Z,0
2017-03-24T01:05:34.134Z,0
2017-03-24T01:06:42.903Z,0
2017-03-24T01:07:52.251Z,0
2017-03-24T01:09:02.547Z,0
2017-03-24T01:10:11.626Z,0
2017-03-24T01:11:20.659Z,0
2017-03-24T01:12:29.758Z,0
2017-03-24T01:13:39.454Z,0
2017-03-24T01:14:49.140Z,0
2017-03-24T01:15:58.232Z,0
2017-03-24T01:17:07.329Z,0
2017-03-24T01:18:16.411Z,0
2017-03-24T01:19:26.045Z,0
2017-03-24T01:20:35.442Z,0
2017-03-24T01:21:44.419Z,0
2017-03-24T01:22:53.505Z,0
2017-03-24T01:24:02.586Z,0
2017-03-24T01:25:11.911Z,0
2017-03-24T01:26:21.003Z,0
2017-03-24T01:27:30.081Z,0
2017-03-24T01:28:39.466Z,0
2017-03-24T01:29:48.246Z,0
2017-03-24T01:30:57.039Z,0
2017-03-24T01:32:06.129Z,0
2017-03-24T01:33:15.822Z,0
2017-03-24T01:34:25.522Z,0
2017-03-24T01:35:34.606Z,0
2017-03-24T01:36:43.383Z,0
2017-03-24T01:37:52.778Z,0
2017-03-24T01:39:02.479Z,0
2017-03-24T01:40:11.873Z,0
2017-03-24T01:41:22.178Z,0
2017-03-24T01:42:31.572Z,0
2017-03-24T01:43:40.966Z,0
2017-03-24T01:44:50.060Z,0
2017-03-24T01:45:58.879Z,0
2017-03-24T01:47:07.924Z,0
2017-03-24T01:48:16.945Z,0
2017-03-24T01:49:26.955Z,0
2017-03-24T01:50:36.046Z,0
2017-03-24T01:51:45.479Z,0
2017-03-24T01:52:55.001Z,0
2017-03-24T01:54:04.401Z,0
2017-03-24T01:55:14.095Z,0
2017-03-24T01:56:23.111Z,0
2017-03-24T01:57:32.807Z,0
2017-03-24T01:58:42.203Z,0
2017-03-24T01:59:51.294Z,0
2017-03-24T02:01:00.381Z,0
2017-03-24T02:02:09.161Z,0
2017-03-24T02:03:18.561Z,0
2017-03-24T02:04:28.160Z,0
2017-03-24T02:05:37.547Z,0
2017-03-24T02:06:46.625Z,0
2017-03-24T02:07:56.316Z,0
2017-03-24T02:09:06.315Z,0
2017-03-24T02:10:15.718Z,0
2017-03-24T02:11:25.103Z,0
2017-03-24T02:12:34.483Z,0
2017-03-24T02:13:43.871Z,0
2017-03-24T02:14:52.884Z,0
2017-03-24T02:16:01.963Z,0
2017-03-24T02:17:10.983Z,0
2017-03-24T02:18:20.308Z,0
2017-03-24T02:19:30.009Z,0
2017-03-24T02:20:39.093Z,0
2017-03-24T02:21:48.175Z,0
2017-03-24T02:22:57.284Z,0
2017-03-24T02:24:06.679Z,0
2017-03-24T02:25:16.003Z,0
2017-03-24T02:26:25.089Z,0
2017-03-24T02:27:34.789Z,0
2017-03-24T02:28:44.475Z,0
2017-03-24T02:29:54.168Z,0
2017-03-24T02:31:02.881Z,0
2017-03-24T02:32:11.969Z,0
2017-03-24T02:33:21.318Z,0
2017-03-24T02:34:30.098Z,0
2017-03-24T02:35:39.070Z,0
2017-03-24T02:36:48.151Z,0
2017-03-24T02:37:57.559Z,0
2017-03-24T02:39:07.265Z,0
2017-03-24T02:40:16.667Z,0
2017-03-24T02:41:26.046Z,0
2017-03-24T02:42:35.125Z,0
2017-03-24T02:43:44.826Z,0
2017-03-24T02:44:54.155Z,0
2017-03-24T02:46:03.539Z,0
2017-03-24T02:47:12.927Z,0
2017-03-24T02:48:22.922Z,0
2017-03-24T02:49:32.250Z,0
2017-03-24T02:50:41.353Z,0
2017-03-24T02:51:50.064Z,0
2017-03-24T02:52:59.153Z,0
2017-03-24T02:54:08.958Z,0
2017-03-24T02:55:18.037Z,0
2017-03-24T02:56:27.731Z,0
2017-03-24T02:57:36.809Z,0
2017-03-24T02:58:46.507Z,0
2017-03-24T02:59:56.206Z,0
2017-03-24T03:01:05.232Z,0
2017-03-24T03:02:14.318Z,0
2017-03-24T03:03:23.411Z,0
2017-03-24T03:04:32.934Z,0
2017-03-24T03:05:42.023Z,0
2017-03-24T03:06:51.095Z,0
2017-03-24T03:08:00.196Z,0
2017-03-24T03:09:09.594Z,0
2017-03-24T03:10:18.677Z,0
2017-03-24T03:11:27.760Z,0
2017-03-24T03:12:37.150Z,0
2017-03-24T03:13:46.543Z,0
2017-03-24T03:14:55.924Z,0
2017-03-24T03:16:04.696Z,0
2017-03-24T03:17:13.715Z,0
2017-03-24T03:18:23.342Z,0
2017-03-24T03:19:32.370Z,0
2017-03-24T03:20:41.693Z,0
2017-03-24T03:21:50.472Z,0
2017-03-24T03:22:59.863Z,0
2017-03-24T03:24:09.465Z,0
2017-03-24T03:25:18.859Z,0
2017-03-24T03:26:27.636Z,0
2017-03-24T03:27:36.714Z,0
2017-03-24T03:28:45.797Z,0
2017-03-24T03:29:55.198Z,0
2017-03-24T03:31:04.032Z,0
2017-03-24T03:32:13.721Z,0
2017-03-24T03:33:22.810Z,0
2017-03-24T03:34:32.812Z,0
2017-03-24T03:35:41.784Z,0
2017-03-24T03:36:51.173Z,0
2017-03-24T03:38:01.106Z,0
2017-03-24T03:39:10.800Z,0
2017-03-24T03:40:19.889Z,0
2017-03-24T03:41:28.669Z,0
2017-03-24T03:42:38.374Z,0
2017-03-24T03:43:47.776Z,0
2017-03-24T03:44:57.175Z,0
2017-03-24T03:46:06.565Z,0
2017-03-24T03:47:15.335Z,0
2017-03-24T03:48:24.109Z,0
2017-03-24T03:49:33.191Z,0
2017-03-24T03:50:41.971Z,0
2017-03-24T03:51:50.669Z,0
2017-03-24T03:53:00.347Z,0
2017-03-24T03:54:09.387Z,0
2017-03-24T03:55:18.765Z,0
2017-03-24T03:56:28.129Z,0
2017-03-24T03:57:37.806Z,0
2017-03-24T03:58:47.490Z,0
2017-03-24T03:59:56.863Z,0
2017-03-24T04:01:06.191Z,0
2017-03-24T04:02:15.229Z,0
2017-03-24T04:03:24.535Z,0
2017-03-24T04:04:34.518Z,0
2017-03-24T04:05:43.509Z,0
2017-03-24T04:06:52.570Z,0
2017-03-24T04:08:02.239Z,0
2017-03-24T04:09:11.923Z,0
2017-03-24T04:10:20.979Z,0
2017-03-24T04:11:29.743Z,0
2017-03-24T04:12:39.549Z,0
2017-03-24T04:13:48.918Z,0
2017-03-24T04:14:58.298Z,0
2017-03-24T04:16:07.295Z,0
2017-03-24T04:17:17.427Z,0
2017-03-24T04:18:27.111Z,0
2017-03-24T04:19:36.416Z,0
2017-03-24T04:20:45.483Z,0
2017-03-24T04:21:54.243Z,0
2017-03-24T04:23:03.621Z,0
2017-03-24T04:24:12.923Z,0
2017-03-24T04:25:22.594Z,0
2017-03-24T04:26:31.658Z,0
2017-03-24T04:27:41.341Z,0
2017-03-24T04:28:51.022Z,0
2017-03-24T04:30:00.913Z,0
2017-03-24T04:31:10.329Z,0
2017-03-24T04:32:19.391Z,0
2017-03-24T04:33:29.067Z,0
2017-03-24T04:34:38.427Z,0
2017-03-24T04:35:47.185Z,0
2017-03-24T04:36:56.246Z,0
2017-03-24T04:38:05.614Z,0
2017-03-24T04:39:15.343Z,0
2017-03-24T04:40:24.341Z,0
2017-03-24T04:41:33.338Z,0
2017-03-24T04:42:43.312Z,0
2017-03-24T04:43:53.225Z,0
2017-03-24T04:45:02.293Z,0
2017-03-24T04:46:11.353Z,0
2017-03-24T04:47:20.423Z,0
2017-03-24T04:48:30.723Z,0
2017-03-24T04:49:39.792Z,0
2017-03-24T04:50:48.848Z,0
2017-03-24T04:51:57.613Z,0
2017-03-24T04:53:07.488Z,0
2017-03-24T04:54:17.466Z,0
2017-03-24T04:55:26.538Z,0
2017-03-24T04:56:35.908Z,0
2017-03-24T04:57:46.203Z,0
2017-03-24T04:58:55.804Z,0
2017-03-24T05:00:05.173Z,0
2017-03-24T05:01:13.934Z,0
2017-03-24T05:02:22.688Z,0
2017-03-24T05:03:32.368Z,0
2017-03-24T05:04:41.296Z,0
2017-03-24T05:05:49.997Z,0
2017-03-24T05:06:58.753Z,0
2017-03-24T05:08:08.112Z,0
2017-03-24T05:09:17.801Z,0
2017-03-24T05:10:27.473Z,0
2017-03-24T05:11:36.234Z,0
2017-03-24T05:12:45.916Z,0
2017-03-24T05:13:55.912Z,0
2017-03-24T05:15:05.597Z,0
2017-03-24T05:16:14.960Z,0
2017-03-24T05:17:24.324Z,0
2017-03-24T05:18:34.004Z,0
2017-03-24T05:19:43.374Z,0
2017-03-24T05:20:52.443Z,0
2017-03-24T05:22:01.516Z,0
2017-03-24T05:23:11.201Z,0
2017-03-24T05:24:21.176Z,0
2017-03-24T05:25:30.849Z,0
2017-03-24T05:26:40.528Z,0
2017-03-24T05:27:49.882Z,0
2017-03-24T05:28:59.253Z,0
2017-03-24T05:30:08.633Z,0
2017-03-24T05:31:17.954Z,0
2017-03-24T05:32:26.957Z,0
2017-03-24T05:33:36.340Z,0
2017-03-24T05:34:45.718Z,0
2017-03-24T05:35:54.474Z,0
2017-03-24T05:37:03.537Z,0
2017-03-24T05:38:12.912Z,0
2017-03-24T05:39:22.551Z,0
2017-03-24T05:40:31.614Z,0
2017-03-24T05:41:40.304Z,5
2017-03-24T05:42:49.976Z,5
2017-03-24T05:43:59.352Z,5
2017-03-24T05:45:08.760Z,5
2017-03-24T05:46:18.067Z,5
2017-03-24T05:47:27.373Z,5
2017-03-24T05:48:37.050Z,5
2017-03-24T05:49:46.123Z,5
2017-03-24T05:50:55.197Z,5
2017-03-24T05:52:04.264Z,10
2017-03-24T05:53:13.689Z,10
2017-03-24T05:54:23.373Z,10
2017-03-24T05:55:33.050Z,10
2017-03-24T05:56:42.730Z,10
2017-03-24T05:57:52.036Z,10
2017-03-24T05:59:02.015Z,10
2017-03-24T06:00:11.388Z,10
2017-03-24T06:01:20.151Z,10
2017-03-24T06:02:29.223Z,15
2017-03-24T06:03:38.902Z,15
2017-03-24T06:04:48.291Z,10
2017-03-24T06:05:57.342Z,10
2017-03-24T06:07:06.397Z,15
2017-03-24T06:08:15.179Z,15
2017-03-24T06:09:24.488Z,15
2017-03-24T06:10:33.859Z,15
2017-03-24T06:11:42.930Z,15
2017-03-24T06:12:52.311Z,20
2017-03-24T06:14:01.697Z,20
2017-03-24T06:15:10.919Z,20
2017-03-24T06:16:19.739Z,20
2017-03-24T06:17:28.507Z,20
2017-03-24T06:18:37.877Z,20
2017-03-24T06:19:47.251Z,20
2017-03-24T06:20:56.021Z,20
2017-03-24T06:22:05.085Z,20
2017-03-24T06:23:14.771Z,20
2017-03-24T06:24:24.149Z,25
2017-03-24T06:25:34.129Z,25
2017-03-24T06:26:43.195Z,25
2017-03-24T06:27:52.580Z,25
2017-03-24T06:29:02.268Z,25
2017-03-24T06:30:11.659Z,25
2017-03-24T06:31:20.428Z,25
2017-03-24T06:32:29.217Z,25
2017-03-24T06:33:38.606Z,30
2017-03-24T06:34:47.912Z,30
2017-03-24T06:35:56.670Z,30
2017-03-24T06:37:06.047Z,30
2017-03-24T06:38:15.357Z,30
2017-03-24T06:39:25.043Z,30
2017-03-24T06:40:34.053Z,30
2017-03-24T06:41:42.750Z,30
2017-03-24T06:42:52.428Z,35
2017-03-24T06:44:02.098Z,35
2017-03-24T06:45:11.625Z,35
2017-03-24T06:46:20.387Z,35
2017-03-24T06:47:29.457Z,35
2017-03-24T06:48:38.522Z,40
2017-03-24T06:49:47.399Z,45
2017-03-24T06:50:57.275Z,45
2017-03-24T06:52:06.346Z,45
2017-03-24T06:53:15.728Z,50
2017-03-24T06:54:25.115Z,50
2017-03-24T06:55:34.484Z,55
2017-03-24T06:56:43.246Z,50
2017-03-24T06:57:52.312Z,50
2017-03-24T06:59:02.300Z,50
2017-03-24T07:00:11.979Z,55
2017-03-24T07:01:21.047Z,60
2017-03-24T07:02:30.418Z,60
2017-03-24T07:03:40.109Z,65
2017-03-24T07:04:49.799Z,70
2017-03-24T07:05:58.867Z,80
2017-03-24T07:07:08.247Z,150
2017-03-24T07:08:17.634Z,215
2017-03-24T07:09:27.662Z,220
2017-03-24T07:10:36.432Z,235
2017-03-24T07:11:45.707Z,245
2017-03-24T07:12:55.083Z,240
2017-03-24T07:14:04.163Z,240
2017-03-24T07:15:13.532Z,245
2017-03-24T07:16:22.595Z,25
2017-03-24T07:17:31.663Z,65
2017-03-24T07:18:41.039Z,190
2017-03-24T07:19:50.102Z,225
2017-03-24T07:20:59.167Z,200
2017-03-24T07:22:08.069Z,125
2017-03-24T07:23:17.147Z,60
2017-03-24T07:24:26.830Z,55
2017-03-24T07:25:35.595Z,65
2017-03-24T07:26:44.360Z,75
2017-03-24T07:27:54.053Z,120
2017-03-24T07:29:03.126Z,65
2017-03-24T07:30:12.152Z,55
2017-03-24T07:31:20.920Z,55
2017-03-24T07:32:29.994Z,60
2017-03-24T07:33:39.259Z,55
2017-03-24T07:34:49.130Z,55
2017-03-24T07:35:57.900Z,55
2017-03-24T07:37:07.571Z,50
2017-03-24T07:38:17.195Z,55
2017-03-24T07:39:26.261Z,50
2017-03-24T07:40:35.338Z,45
2017-03-24T07:41:44.102Z,55
2017-03-24T07:42:53.791Z,45
2017-03-24T07:44:03.974Z,40
2017-03-24T07:45:13.346Z,35
2017-03-24T07:46:22.416Z,45
2017-03-24T07:47:31.487Z,55
2017-03-24T07:48:40.864Z,75
2017-03-24T07:49:50.852Z,90
2017-03-24T07:50:59.855Z,60
2017-03-24T07:52:09.232Z,55
2017-03-24T07:53:18.610Z,75
2017-03-24T07:54:28.291Z,90
2017-03-24T07:55:37.061Z,65
2017-03-24T07:56:45.836Z,130
2017-03-24T07:57:54.597Z,135
2017-03-24T07:59:03.356Z,70
2017-03-24T08:00:12.372Z,145
2017-03-24T08:01:21.449Z,135
2017-03-24T08:02:30.520Z,150
2017-03-24T08:03:39.212Z,105
2017-03-24T08:04:47.980Z,110
2017-03-24T08:05:56.743Z,100
2017-03-24T08:07:05.446Z,80
2017-03-24T08:08:14.518Z,110
2017-03-24T08:09:23.283Z,115
2017-03-24T08:10:32.051Z,130
2017-03-24T08:11:40.748Z,130
2017-03-24T08:12:49.515Z,95
2017-03-24T08:13:58.879Z,65
2017-03-24T08:15:07.643Z,55
2017-03-24T08:16:16.423Z,70
2017-03-24T08:17:25.185Z,70
2017-03-24T08:18:34.251Z,85
2017-03-24T08:19:43.013Z,70
2017-03-24T08:20:51.789Z,80
2017-03-24T08:22:00.481Z,100
2017-03-24T08:23:09.185Z,105
2017-03-24T08:24:17.955Z,115
2017-03-24T08:25:26.954Z,90
2017-03-24T08:26:36.218Z,80
2017-03-24T08:27:44.975Z,130
2017-03-24T08:28:53.738Z,140
2017-03-24T08:30:02.806Z,110
2017-03-24T08:31:11.877Z,115
2017-03-24T08:32:20.569Z,180
2017-03-24T08:33:29.369Z,140
2017-03-24T08:34:38.132Z,105
2017-03-24T08:35:46.895Z,185
2017-03-24T08:36:55.819Z,185
2017-03-24T08:38:04.583Z,170
2017-03-24T08:39:13.293Z,165
2017-03-24T08:40:22.360Z,160
2017-03-24T08:41:31.431Z,155
2017-03-24T08:42:40.127Z,160
2017-03-24T08:43:48.891Z,155
2017-03-24T08:44:57.889Z,160
2017-03-24T08:46:06.657Z,160
2017-03-24T08:47:15.651Z,160
2017-03-24T08:48:24.611Z,160
2017-03-24T08:49:33.378Z,160
2017-03-24T08:50:42.748Z,170
2017-03-24T08:51:51.816Z,170
2017-03-24T08:53:00.880Z,170
2017-03-24T08:54:09.775Z,165
2017-03-24T08:55:18.835Z,160
2017-03-24T08:56:27.587Z,155
2017-03-24T08:57:36.350Z,155
2017-03-24T08:58:45.114Z,165
2017-03-24T08:59:53.876Z,185
2017-03-24T09:01:02.944Z,205
2017-03-24T09:02:11.706Z,220
2017-03-24T09:03:20.463Z,690
2017-03-24T09:04:29.419Z,1040
2017-03-24T09:05:38.178Z,1025
2017-03-24T09:06:47.246Z,970
2017-03-24T09:07:55.937Z,1015
2017-03-24T09:09:04.636Z,1090
2017-03-24T09:10:13.702Z,1115
2017-03-24T09:11:22.503Z,780
2017-03-24T09:12:31.569Z,290
2017-03-24T09:13:40.638Z,250
2017-03-24T09:14:49.600Z,260
2017-03-24T09:15:58.412Z,345
2017-03-24T09:17:07.181Z,845
2017-03-24T09:18:16.146Z,1030
2017-03-24T09:19:24.910Z,1065
2017-03-24T09:20:33.675Z,1180
2017-03-24T09:21:42.726Z,1160
2017-03-24T09:22:51.486Z,1180
2017-03-24T09:24:00.180Z,1230
2017-03-24T09:25:09.252Z,1220
2017-03-24T09:26:18.217Z,1140
2017-03-24T09:27:26.980Z,1190
2017-03-24T09:28:35.745Z,1260
2017-03-24T09:29:44.504Z,1285
2017-03-24T09:30:53.261Z,1290
2017-03-24T09:32:02.026Z,1125
2017-03-24T09:33:11.607Z,1325
2017-03-24T09:34:20.368Z,1260
2017-03-24T09:35:29.123Z,895
2017-03-24T09:36:37.884Z,1075
2017-03-24T09:37:46.658Z,635
2017-03-24T09:38:55.458Z,1040
2017-03-24T09:40:04.534Z,1300
2017-03-24T09:41:13.651Z,1330
2017-03-24T09:42:22.412Z,1440
2017-03-24T09:43:31.178Z,1055
2017-03-24T09:44:39.947Z,1245
2017-03-24T09:45:48.650Z,1350
2017-03-24T09:46:57.418Z,1355
2017-03-24T09:48:06.114Z,1195
2017-03-24T09:49:14.879Z,820
2017-03-24T09:50:23.954Z,1280
2017-03-24T09:51:32.715Z,1290
2017-03-24T09:52:41.479Z,885
2017-03-24T09:53:50.243Z,1050
2017-03-24T09:54:59.009Z,1095
2017-03-24T09:56:07.745Z,1010
2017-03-24T09:57:16.515Z,785
2017-03-24T09:58:25.303Z,725
2017-03-24T09:59:34.062Z,1010
2017-03-24T10:00:42.834Z,700
2017-03-24T10:01:51.535Z,350
2017-03-24T10:03:00.293Z,345
2017-03-24T10:04:09.057Z,335
2017-03-24T10:05:17.824Z,280
2017-03-24T10:06:26.595Z,370
2017-03-24T10:07:35.361Z,465
2017-03-24T10:08:44.128Z,360
2017-03-24T10:09:52.902Z,425
2017-03-24T10:11:01.666Z,450
2017-03-24T10:12:11.236Z,305
2017-03-24T10:13:20.305Z,320
2017-03-24T10:14:29.037Z,245
2017-03-24T10:15:37.800Z,415
2017-03-24T10:16:46.576Z,370
2017-03-24T10:17:55.306Z,445
2017-03-24T10:19:04.070Z,455
2017-03-24T10:20:12.825Z,435
2017-03-24T10:21:21.598Z,450
2017-03-24T10:22:30.335Z,430
2017-03-24T10:23:39.401Z,420
2017-03-24T10:24:48.170Z,405
2017-03-24T10:25:57.280Z,300
2017-03-24T10:27:05.977Z,240
2017-03-24T10:28:14.745Z,210
2017-03-24T10:29:23.806Z,225
2017-03-24T10:30:33.692Z,315
2017-03-24T10:31:43.301Z,355
2017-03-24T10:32:52.067Z,295
2017-03-24T10:34:01.067Z,345
2017-03-24T10:35:09.828Z,390
2017-03-24T10:36:18.599Z,380
2017-03-24T10:37:27.375Z,465
2017-03-24T10:38:36.784Z,800
2017-03-24T10:39:46.177Z,1060
2017-03-24T10:40:55.470Z,520
2017-03-24T10:42:04.240Z,640
2017-03-24T10:43:13.011Z,640
2017-03-24T10:44:21.776Z,580
2017-03-24T10:45:30.547Z,1165
2017-03-24T10:46:39.317Z,525
2017-03-24T10:47:48.081Z,650
2017-03-24T10:48:56.846Z,1115
2017-03-24T10:50:05.603Z,1100
2017-03-24T10:51:14.370Z,1240
2017-03-24T10:52:23.131Z,1110
2017-03-24T10:53:31.897Z,630
2017-03-24T10:54:40.665Z,745
2017-03-24T10:55:49.445Z,920
2017-03-24T10:56:58.521Z,920
2017-03-24T10:58:07.217Z,760
2017-03-24T10:59:16.019Z,695
2017-03-24T11:00:25.304Z,1020
2017-03-24T11:01:34.075Z,1145
2017-03-24T11:02:43.138Z,880
2017-03-24T11:03:51.836Z,430
2017-03-24T11:05:00.601Z,1155
2017-03-24T11:06:09.601Z,595
2017-03-24T11:07:18.767Z,360
2017-03-24T11:08:27.531Z,830
2017-03-24T11:09:36.306Z,890
2017-03-24T11:10:45.078Z,1255
2017-03-24T11:11:54.115Z,1295
2017-03-24T11:13:02.878Z,1225
2017-03-24T11:14:12.148Z,760
2017-03-24T11:15:20.906Z,845
2017-03-24T11:16:29.678Z,1000
2017-03-24T11:17:38.374Z,680
2017-03-24T11:18:47.140Z,365
2017-03-24T11:19:55.914Z,435
2017-03-24T11:21:04.672Z,560
2017-03-24T11:22:13.368Z,660
2017-03-24T11:23:22.139Z,650
2017-03-24T11:24:31.412Z,950
2017-03-24T11:25:40.172Z,755
2017-03-24T11:26:48.941Z,1020
2017-03-24T11:27:57.709Z,910
2017-03-24T11:29:06.476Z,1045
2017-03-24T11:30:15.242Z,1120
2017-03-24T11:31:23.937Z,685
2017-03-24T11:32:32.705Z,920
2017-03-24T11:33:41.777Z,795
2017-03-24T11:34:50.750Z,820
2017-03-24T11:35:59.750Z,940
2017-03-24T11:37:08.527Z,830
2017-03-24T11:38:17.296Z,790
2017-03-24T11:39:26.073Z,820
2017-03-24T11:40:34.770Z,1170
2017-03-24T11:41:43.838Z,1170
2017-03-24T11:42:52.605Z,1075
2017-03-24T11:44:01.371Z,1005
2017-03-24T11:45:10.293Z,1105
2017-03-24T11:46:19.067Z,1055
2017-03-24T11:47:27.831Z,1050
2017-03-24T11:48:36.525Z,1080
2017-03-24T11:49:45.590Z,1125
2017-03-24T11:50:54.338Z,1140
2017-03-24T11:52:03.100Z,1145
2017-03-24T11:53:11.873Z,1055
2017-03-24T11:54:20.637Z,1290
2017-03-24T11:55:29.405Z,1290
2017-03-24T11:56:38.472Z,1290
2017-03-24T11:57:47.571Z,1150
2017-03-24T11:58:56.594Z,1220
2017-03-24T12:00:05.369Z,1140
2017-03-24T12:01:14.139Z,955
2017-03-24T12:02:22.905Z,1035
2017-03-24T12:03:31.677Z,1000
2017-03-24T12:04:40.444Z,710
2017-03-24T12:05:49.826Z,310
2017-03-24T12:06:58.897Z,240
2017-03-24T12:08:07.590Z,200
2017-03-24T12:09:16.302Z,175
2017-03-24T12:10:25.308Z,155
2017-03-24T12:11:34.112Z,160
2017-03-24T12:12:42.889Z,155
2017-03-24T12:13:51.863Z,150
2017-03-24T12:15:00.607Z,145
2017-03-24T12:16:09.369Z,145
2017-03-24T12:17:18.439Z,145
2017-03-24T12:18:27.440Z,140
2017-03-24T12:19:36.212Z,145
2017-03-24T12:20:44.989Z,140
2017-03-24T12:21:54.055Z,140
2017-03-24T12:23:03.055Z,130
2017-03-24T12:24:11.816Z,125
2017-03-24T12:25:20.881Z,130
2017-03-24T12:26:29.648Z,135
2017-03-24T12:27:38.408Z,130
2017-03-24T12:28:47.172Z,130
2017-03-24T12:29:56.542Z,125
2017-03-24T12:31:05.312Z,125
2017-03-24T12:32:14.070Z,120
2017-03-24T12:33:22.843Z,115
2017-03-24T12:34:31.597Z,110
2017-03-24T12:35:40.359Z,110
2017-03-24T12:36:49.120Z,100
2017-03-24T12:37:58.121Z,105
2017-03-24T12:39:06.813Z,105
2017-03-24T12:40:15.630Z,100
2017-03-24T12:41:24.387Z,105
2017-03-24T12:42:33.159Z,100
2017-03-24T12:43:42.163Z,100
2017-03-24T12:44:50.873Z,100
2017-03-24T12:45:59.675Z,100
2017-03-24T12:47:08.447Z,90
2017-03-24T12:48:17.780Z,90
2017-03-24T12:49:26.787Z,85
2017-03-24T12:50:35.548Z,90
2017-03-24T12:51:44.316Z,100
2017-03-24T12:52:53.087Z,100
2017-03-24T12:54:02.155Z,105
2017-03-24T12:55:11.263Z,100
2017-03-24T12:56:20.478Z,100
2017-03-24T12:57:29.245Z,100
2017-03-24T12:58:38.008Z,100
2017-03-24T12:59:47.078Z,95
2017-03-24T13:00:56.147Z,95
2017-03-24T13:02:05.204Z,95
2017-03-24T13:03:13.969Z,95
2017-03-24T13:04:22.735Z,95
2017-03-24T13:05:31.827Z,85
2017-03-24T13:06:40.594Z,100
2017-03-24T13:07:49.802Z,100
2017-03-24T13:08:58.891Z,95
2017-03-24T13:10:07.669Z,95
2017-03-24T13:11:16.632Z,90
2017-03-24T13:12:25.404Z,90
2017-03-24T13:13:34.404Z,85
2017-03-24T13:14:43.165Z,80
2017-03-24T13:15:52.210Z,75
2017-03-24T13:17:00.974Z,70
2017-03-24T13:18:09.749Z,75
2017-03-24T13:19:18.513Z,75
2017-03-24T13:20:27.283Z,80
2017-03-24T13:21:36.658Z,80
2017-03-24T13:22:45.416Z,80
2017-03-24T13:23:54.183Z,75
2017-03-24T13:25:03.251Z,60
2017-03-24T13:26:12.323Z,70
2017-03-24T13:27:21.095Z,65
2017-03-24T13:28:29.858Z,75
2017-03-24T13:29:39.530Z,75
2017-03-24T13:30:48.608Z,75
2017-03-24T13:31:57.686Z,75
2017-03-24T13:33:06.761Z,65
2017-03-24T13:34:15.528Z,65
2017-03-24T13:35:24.311Z,65
2017-03-24T13:36:33.077Z,60
2017-03-24T13:37:41.841Z,60
2017-03-24T13:38:50.603Z,55
2017-03-24T13:39:59.369Z,60
2017-03-24T13:41:08.441Z,60
2017-03-24T13:42:17.209Z,65
2017-03-24T13:43:26.281Z,70
2017-03-24T13:44:35.353Z,70
2017-03-24T13:45:44.121Z,70
2017-03-24T13:46:52.886Z,70
2017-03-24T13:48:01.651Z,70
2017-03-24T13:49:10.352Z,65
2017-03-24T13:50:19.077Z,60
2017-03-24T13:51:27.845Z,60
2017-03-24T13:52:36.615Z,60
2017-03-24T13:53:45.383Z,55
2017-03-24T13:54:54.448Z,55
2017-03-24T13:56:03.224Z,55
2017-03-24T13:57:11.998Z,55
2017-03-24T13:58:20.763Z,60
2017-03-24T13:59:29.532Z,60
2017-03-24T14:00:38.610Z,60
2017-03-24T14:01:47.976Z,55
2017-03-24T14:02:56.749Z,55
2017-03-24T14:04:05.832Z,55
2017-03-24T14:05:14.615Z,50
2017-03-24T14:06:23.381Z,50
2017-03-24T14:07:32.149Z,50
2017-03-24T14:08:40.922Z,50
2017-03-24T14:09:49.994Z,50
2017-03-24T14:10:58.753Z,50
2017-03-24T14:12:07.815Z,50
2017-03-24T14:13:16.585Z,50
2017-03-24T14:14:25.550Z,50
2017-03-24T14:15:34.620Z,50
2017-03-24T14:16:43.346Z,50
2017-03-24T14:17:52.046Z,45
2017-03-24T14:19:01.424Z,45
2017-03-24T14:20:10.185Z,45
2017-03-24T14:21:19.256Z,45
2017-03-24T14:22:28.319Z,45
2017-03-24T14:23:37.078Z,45
2017-03-24T14:24:45.777Z,45
2017-03-24T14:25:54.750Z,45
2017-03-24T14:27:03.856Z,45
2017-03-24T14:28:12.620Z,45
2017-03-24T14:29:21.351Z,45
2017-03-24T14:30:30.659Z,45
2017-03-24T14:31:39.559Z,45
2017-03-24T14:32:48.624Z,45
2017-03-24T14:33:57.387Z,45
2017-03-24T14:35:06.149Z,45
2017-03-24T14:36:15.220Z,45
2017-03-24T14:37:24.303Z,45
2017-03-24T14:38:33.080Z,45
2017-03-24T14:39:42.452Z,45
2017-03-24T14:40:51.219Z,40
2017-03-24T14:42:00.191Z,40
2017-03-24T14:43:09.253Z,40
2017-03-24T14:44:18.664Z,40
2017-03-24T14:45:27.430Z,40
2017-03-24T14:46:36.131Z,40
2017-03-24T14:47:45.194Z,40
2017-03-24T14:48:54.184Z,40
2017-03-24T14:50:02.952Z,35
2017-03-24T14:51:11.732Z,35
2017-03-24T14:52:20.678Z,35
2017-03-24T14:53:29.413Z,35
2017-03-24T14:54:38.184Z,35
2017-03-24T14:55:47.112Z,35
2017-03-24T14:56:56.138Z,35
2017-03-24T14:58:04.886Z,35
2017-03-24T14:59:14.615Z,35
2017-03-24T15:00:23.309Z,35
2017-03-24T15:01:32.073Z,35
2017-03-24T15:02:40.843Z,35
2017-03-24T15:03:49.582Z,35
2017-03-24T15:04:58.655Z,35
2017-03-24T15:06:07.924Z,30
2017-03-24T15:07:16.987Z,30
2017-03-24T15:08:25.758Z,30
2017-03-24T15:09:34.536Z,30
2017-03-24T15:10:43.231Z,30
2017-03-24T15:11:51.997Z,30
2017-03-24T15:13:00.993Z,30
2017-03-24T15:14:09.763Z,30
2017-03-24T15:15:18.833Z,30
2017-03-24T15:16:27.603Z,30
2017-03-24T15:17:36.374Z,30
2017-03-24T15:18:45.441Z,30
2017-03-24T15:19:54.202Z,25
2017-03-24T15:21:03.262Z,25
2017-03-24T15:22:12.338Z,25
2017-03-24T15:23:21.410Z,25
2017-03-24T15:24:30.420Z,25
2017-03-24T15:25:39.682Z,25
2017-03-24T15:26:48.374Z,25
2017-03-24T15:27:57.137Z,25
2017-03-24T15:29:05.850Z,25
2017-03-24T15:30:14.949Z,25
2017-03-24T15:31:24.321Z,25
2017-03-24T15:32:33.392Z,25
2017-03-24T15:33:42.462Z,25
2017-03-24T15:34:51.225Z,25
2017-03-24T15:36:00.301Z,20
2017-03-24T15:37:09.636Z,20
2017-03-24T15:38:18.394Z,20
2017-03-24T15:39:27.169Z,20
2017-03-24T15:40:36.241Z,20
2017-03-24T15:41:45.210Z,20
2017-03-24T15:42:53.966Z,20
2017-03-24T15:44:03.029Z,20
2017-03-24T15:45:12.096Z,20
2017-03-24T15:46:21.100Z,20
2017-03-24T15:47:30.163Z,20
2017-03-24T15:48:38.930Z,20
2017-03-24T15:49:47.628Z,20
2017-03-24T15:50:56.392Z,20
2017-03-24T15:52:05.472Z,20
2017-03-24T15:53:14.840Z,20
2017-03-24T15:54:23.598Z,20
2017-03-24T15:55:32.357Z,20
2017-03-24T15:56:41.088Z,20
2017-03-24T15:57:49.848Z,20
2017-03-24T15:58:58.612Z,20
2017-03-24T16:00:07.381Z,20
2017-03-24T16:01:16.147Z,20
2017-03-24T16:02:24.961Z,20
2017-03-24T16:03:33.692Z,20
2017-03-24T16:04:43.059Z,20
2017-03-24T16:05:51.824Z,20
2017-03-24T16:07:00.906Z,20
2017-03-24T16:08:09.683Z,15
2017-03-24T16:09:18.380Z,15
2017-03-24T16:10:27.134Z,15
2017-03-24T16:11:36.203Z,15
2017-03-24T16:12:44.962Z,15
2017-03-24T16:13:53.726Z,15
2017-03-24T16:15:02.496Z,15
2017-03-24T16:16:11.872Z,15
2017-03-24T16:17:20.639Z,15
2017-03-24T16:18:29.398Z,15
2017-03-24T16:19:38.158Z,15
2017-03-24T16:20:47.320Z,15
2017-03-24T16:21:56.635Z,15
2017-03-24T16:23:05.396Z,15
2017-03-24T16:24:14.395Z,15